Flight Track Log - Related Links

Times and Time Zones

All times are in EST time to prevent confusion due to time zone crossing. See the VRT51 flight status page for this flight to view local times or setup timezone preferences in your user account.

Time Position Orientation Groundspeed Altitude Reporting Facility
EST Latitude Longitude Course Direction KTS MPH feet Rate Location/Type
Sat 05:19:45 PM 26.0750 -80.1344 84° East 140 161 800  Level Miami Center
Sat 05:20:41 PM 26.0803 -80.0789 84° East 202 232 3,100 2,516 Climbing Miami Center
Sat 05:20:47 PM 26.0869 -80.0700 50° Northeast 193 222 3,400 1,636 Climbing Miami Center
Sat 05:21:47 PM 26.1517 -80.0694 360° North 262 302 4,900 750 Climbing Miami Center
Sat 05:22:47 PM 26.2264 -80.0875 348° North 274 315 4,900 1,000 Level Miami Center
Sat 05:23:47 PM 26.2475 -80.1692 286° West 243 280 6,900 2,000 Climbing Miami Center
Sat 05:24:47 PM 26.2517 -80.2619 273° West 253 291 8,900 1,100 Climbing Miami Center
Sat 05:25:47 PM 26.2619 -80.3572 277° West 289 333 9,100 300 Climbing Miami Center
Sat 05:26:47 PM 26.2742 -80.4525 278° West 310 357 9,500 1,750 Climbing Miami Center
Sat 05:27:47 PM 26.2906 -80.5503 281° West 323 372 12,600 2,450 Climbing Miami Center
Sat 05:28:47 PM 26.3428 -80.6378 304° West 323 372 14,400 1,850 Climbing Miami Center
Sat 05:29:47 PM 26.4178 -80.7189 316° Northwest 351 404 16,300 2,300 Climbing Miami Center
Sat 05:30:47 PM 26.5039 -80.7797 328° Northwest 375 432 19,000 2,550 Climbing Miami Center
Sat 05:31:47 PM 26.5922 -80.8408 328° Northwest 375 432 21,400 2,150 Climbing Miami Center
Sat 05:32:47 PM 26.6822 -80.9042 328° Northwest 380 437 23,300 1,900 Climbing Miami Center
Sat 05:33:47 PM 26.7744 -80.9703 327° Northwest 385 443 25,200 1,600 Climbing Miami Center
Sat 05:34:47 PM 26.8581 -81.0361 325° Northwest 396 456 26,500 1,600 Climbing Miami Center
Sat 05:35:47 PM 26.9586 -81.1003 330° Northwest 402 463 28,400 1,600 Climbing Miami Center
Sat 05:36:47 PM 27.0625 -81.1811 325° Northwest 410 472 29,700 1,400 Climbing Miami Center
Sat 05:37:47 PM 27.1669 -81.2503 329° Northwest 421 484 31,200 1,400 Climbing Miami Center
Sat 05:38:47 PM 27.2669 -81.3242 327° Northwest 427 491 32,500 1,650 Climbing Miami Center
Sat 05:39:47 PM 27.3569 -81.3883 328° Northwest 437 503 34,500 1,750 Climbing Miami Center
Sat 05:40:47 PM 27.4567 -81.4625 327° Northwest 426 490 36,000 1,500 Climbing Miami Center
Sat 05:41:47 PM 27.5650 -81.5394 328° Northwest 426 490 37,500 1,000 Climbing Miami Center
Sat 05:42:47 PM 27.6647 -81.6114 327° Northwest 421 484 38,000 250 Climbing Miami Center
Sat 05:43:47 PM 27.7686 -81.6886 327° Northwest 433 498 38,000 50 Level Miami Center
Sat 05:44:47 PM 27.8644 -81.7583 327° Northwest 448 516 38,100 800 Climbing Miami Center
Sat 05:45:47 PM 27.9683 -81.8356 327° Northwest 448 516 39,600 950 Climbing Miami Center
Sat 05:46:47 PM 28.0700 -81.9106 327° Northwest 448 516 40,000 245 Climbing Miami Center
Sat 05:47:25 PM 28.1381 -81.9558 330° Northwest 448 516 40,000  Level Jacksonville Center
Sat 05:48:25 PM 28.2472 -82.0350 327° Northwest 518 596 40,000 450 Level Jacksonville Center
Sat 05:49:25 PM 28.3686 -82.0928 337° Northwest 484 557 40,900 1,450 Climbing Jacksonville Center
Sat 05:50:25 PM 28.4858 -82.1414 340° North 457 526 42,900 1,050 Climbing Jacksonville Center
Sat 05:51:25 PM 28.5967 -82.1881 340° North 438 504 43,000 50 Climbing Jacksonville Center
Sat 05:52:25 PM 28.7117 -82.2369 340° North 433 498 43,000  Level Jacksonville Center
Sat 05:53:25 PM 28.8267 -82.2836 340° North 433 498 43,000  Level Jacksonville Center
Sat 05:54:25 PM 28.9439 -82.3325 340° North 433 498 43,000  Level Jacksonville Center
Sat 05:55:25 PM 29.0694 -82.3889 339° North 433 498 43,000  Level Jacksonville Center
Sat 05:56:25 PM 29.1842 -82.4383 339° North 439 505 43,000  Level Jacksonville Center
Sat 05:57:25 PM 29.3056 -82.4900 340° North 444 511 43,000  Level Jacksonville Center
Sat 05:58:25 PM 29.4225 -82.5397 340° North 444 511 43,000  Level Jacksonville Center
Sat 05:59:25 PM 29.5397 -82.5894 340° North 449 517 43,000  Level Jacksonville Center
Sat 06:00:25 PM 29.6586 -82.6392 340° North 449 517 43,000  Level Jacksonville Center
Sat 06:01:25 PM 29.7778 -82.6939 338° Northwest 455 524 43,000  Level Jacksonville Center
Sat 06:02:25 PM 29.8947 -82.7464 339° North 450 518 43,000  Level Jacksonville Center
Sat 06:03:25 PM 30.0139 -82.7989 339° North 449 517 43,000  Level Jacksonville Center
Sat 06:04:25 PM 30.1225 -82.8397 342° North 449 517 43,000  Level Jacksonville Center
Sat 06:05:25 PM 30.2394 -82.8925 339° North 449 517 43,000  Level Jacksonville Center
Sat 06:06:25 PM 30.3564 -82.9456 339° North 449 517 43,000  Level Jacksonville Center
Sat 06:07:25 PM 30.4731 -82.9961 340° North 449 517 43,000  Level Jacksonville Center
Sat 06:08:25 PM 30.5900 -83.0469 339° North 449 517 43,000  Level Jacksonville Center
Sat 06:09:25 PM 30.7089 -83.1003 339° North 449 517 43,000  Level Jacksonville Center
Sat 06:10:25 PM 30.8236 -83.1489 340° North 449 517 43,000  Level Jacksonville Center
Sat 06:11:25 PM 30.9383 -83.2025 338° Northwest 449 517 43,000  Level Jacksonville Center
Sat 06:12:25 PM 31.0553 -83.2539 339° North 444 511 43,000  Level Jacksonville Center
Sat 06:13:25 PM 31.1742 -83.3078 339° North 450 518 43,000  Level Jacksonville Center
Sat 06:16:03 PM 31.4947 -83.4494 339° North 450 518 43,000  Level Atlanta Center
Sat 06:17:03 PM 31.6097 -83.5025 339° North 439 505 43,000  Level Atlanta Center
Sat 06:18:03 PM 31.7289 -83.5531 340° North 439 505 43,000  Level Atlanta Center
Sat 06:19:03 PM 31.8503 -83.6086 339° North 455 524 43,000  Level Atlanta Center
Sat 06:20:03 PM 31.9672 -83.6642 338° Northwest 455 524 43,000  Level Atlanta Center
Sat 06:21:03 PM 32.0822 -83.7178 338° Northwest 449 517 43,000  Level Atlanta Center
Sat 06:22:03 PM 32.1992 -83.7714 339° North 449 517 43,000  Level Atlanta Center
Sat 06:23:03 PM 32.3161 -83.8300 337° Northwest 455 524 43,000  Level Atlanta Center
Sat 06:24:03 PM 32.4333 -83.8864 338° Northwest 455 524 43,000  Level Atlanta Center
Sat 06:25:03 PM 32.5503 -83.9428 338° Northwest 455 524 43,000  Level Atlanta Center
Sat 06:26:03 PM 32.6672 -84.0019 337° Northwest 455 524 43,000  Level Atlanta Center
Sat 06:27:03 PM 32.7839 -84.0586 338° Northwest 455 524 43,000  Level Atlanta Center
Sat 06:28:03 PM 32.9008 -84.1181 337° Northwest 455 524 43,000  Level Atlanta Center
Sat 06:29:03 PM 33.0178 -84.1775 337° Northwest 455 524 43,000  Level Atlanta Center
Sat 06:30:03 PM 33.1303 -84.2397 335° Northwest 450 518 43,000  Level Atlanta Center
Sat 06:31:03 PM 33.2325 -84.2897 338° Northwest 450 518 43,000  Level Atlanta Center
Sat 06:32:03 PM 33.3492 -84.3472 338° Northwest 444 511 43,000  Level Atlanta Center
Sat 06:33:03 PM 33.4639 -84.4047 337° Northwest 444 511 43,000  Level Atlanta Center
Sat 06:34:03 PM 33.5786 -84.4628 337° Northwest 444 511 43,000  Level Atlanta Center
Sat 06:35:03 PM 33.7078 -84.5283 337° Northwest 444 511 43,000  Level Atlanta Center
Sat 06:36:03 PM 33.8222 -84.5839 338° Northwest 449 517 43,000  Level Atlanta Center
Sat 06:37:03 PM 33.9367 -84.6447 336° Northwest 449 517 43,000  Level Atlanta Center
Sat 06:38:03 PM 34.0533 -84.7083 336° Northwest 449 517 43,000 -200 Level Atlanta Center
Sat 06:39:03 PM 34.1742 -84.7644 339° North 459 528 42,600 -950 Descending Atlanta Center
Sat 06:40:03 PM 34.2761 -84.8181 337° Northwest 459 528 41,100 -1,900 Descending Atlanta Center
Sat 06:41:03 PM 34.3947 -84.8769 338° Northwest 452 520 38,800 -2,350 Descending Atlanta Center
Sat 06:42:03 PM 34.5131 -84.9389 337° Northwest 459 528 36,400 -2,350 Descending Atlanta Center
Sat 06:43:03 PM 34.6294 -85.0006 336° Northwest 454 522 34,100 -1,700 Descending Atlanta Center
Sat 06:44:03 PM 34.7456 -85.0878 328° Northwest 444 511 33,000 -1,146 Descending Atlanta Center
Sat 06:46:22 PM 34.9822 -85.2678 328° Northwest 453 521 30,300 -1,582 Descending Memphis Center
Sat 06:47:24 PM 35.0894 -85.3525 327° Northwest 456 525 27,700 -2,585 Descending Memphis Center
Sat 06:48:25 PM 35.1928 -85.4444 324° Northwest 457 526 25,000 -2,585 Descending Memphis Center
Sat 06:49:27 PM 35.2758 -85.5567 312° West 445 512 22,400 -2,439 Descending Memphis Center
Sat 06:50:28 PM 35.3542 -85.6561 314° West 417 480 20,000 -2,341 Descending Memphis Center
Sat 06:51:30 PM 35.4367 -85.7606 314° West 363 418 17,600 -2,274 Descending Memphis Center
Sat 06:52:32 PM 35.5050 -85.8483 314° West 356 410 15,300 -1,220 Descending Memphis Center
Sat 06:53:33 PM 35.5717 -85.9356 313° West 352 405 15,100 -683 Descending Memphis Center
Sat 06:54:35 PM 35.6358 -86.0214 313° West 343 395 13,900 -1,171 Descending Memphis Center
Sat 06:55:36 PM 35.6983 -86.1056 312° West 332 382 12,700 -1,268 Descending Memphis Center
Sat 06:56:38 PM 35.7622 -86.1931 312° West 337 388 11,300 -1,210 Descending Memphis Center
Sat 06:57:40 PM 35.8261 -86.2758 314° West 332 382 10,200 -1,122 Descending Memphis Center
Sat 06:58:41 PM 35.8800 -86.3453 314° West 286 329 9,000 -1,122 Descending Memphis Center
Sat 06:59:43 PM 35.9325 -86.4144 313° West 275 316 7,900 -1,113 Descending Memphis Center
Sat 07:00:45 PM 35.9844 -86.4842 313° West 274 315 6,700 -927 Descending Memphis Center
Sat 07:01:46 PM 36.0425 -86.5606 313° West 260 299 6,000 -780 Descending Memphis Center
Sat 07:02:48 PM 36.1072 -86.5661 356° North 253 291 5,100 -1,016 Descending Memphis Center
Sat 07:03:50 PM 36.1706 -86.5378 20° North 245 282 3,900 -1,220 Descending Memphis Center
Sat 07:04:51 PM 36.2253 -86.5564 345° North 233 268 2,600 -927 Descending Memphis Center
Sat 07:05:53 PM 36.2269 -86.6158 272° West 198 228 2,000 -290 Descending Memphis Center
Sat 07:06:55 PM 36.2025 -86.6492 228° Southwest 151 174 2,000 -146 Level Memphis Center
Sat 07:07:56 PM 36.1761 -86.6589 197° South 113 130 1,700 -390 Descending Memphis Center
Sat 07:08:58 PM 36.1483 -86.6697 197° South 105 121 1,200 -484 Descending Memphis Center
Sat 07:10:00 PM 36.1156 -86.6831 198° South 106 122 700 -484 Descending Memphis Center
Sat 07:11:00 PM 36.1167 -86.6667 345° North  Level FlightAware Approximate

Login

Don't have an account? Register now (free) for customized features, flight alerts, and more!